createdAt,value
2019-02-27T00:06:47.909Z,102621.91
2019-02-27T00:09:19.316Z,102623.33
2019-02-27T00:11:50.614Z,102615.12
2019-02-27T00:14:19.272Z,102618.97
2019-02-27T00:16:51.145Z,102623.09
2019-02-27T00:19:20.156Z,102626.44
2019-02-27T00:21:52.071Z,102627.45
2019-02-27T00:24:23.571Z,102627.84
2019-02-27T00:26:55.235Z,102622.16
2019-02-27T00:29:23.820Z,102614.52
2019-02-27T00:31:57.860Z,102610.73
2019-02-27T00:34:32.818Z,102607.21
2019-02-27T00:37:02.059Z,102595.70
2019-02-27T00:39:33.323Z,102596.48
2019-02-27T00:42:05.375Z,102591.21
2019-02-27T00:44:34.790Z,102582.98
2019-02-27T00:47:06.096Z,102581.86
2019-02-27T00:49:35.069Z,102585.89
2019-02-27T00:52:03.621Z,102589.22
2019-02-27T00:54:32.214Z,102591.61
2019-02-27T00:57:04.073Z,102585.13
2019-02-27T00:59:35.418Z,102575.52
2019-02-27T01:02:07.140Z,102582.34
2019-02-27T01:04:38.692Z,102575.50
2019-02-27T01:07:07.251Z,102575.55
2019-02-27T01:09:39.521Z,102576.06
2019-02-27T01:12:11.713Z,102573.71
2019-02-27T01:14:43.267Z,102582.95
2019-02-27T01:17:14.956Z,102578.20
2019-02-27T01:19:43.533Z,102579.34
2019-02-27T01:22:12.095Z,102576.42
2019-02-27T01:24:43.863Z,102574.62
2019-02-27T01:27:15.192Z,102570.38
2019-02-27T01:29:43.899Z,102568.55
2019-02-27T01:32:15.180Z,102570.89
2019-02-27T01:34:47.770Z,102573.64
2019-02-27T01:37:19.172Z,102566.65
2019-02-27T01:39:50.474Z,102562.07
2019-02-27T01:42:19.040Z,102553.22
2019-02-27T01:44:51.937Z,102559.73
2019-02-27T01:47:23.521Z,102561.05
2019-02-27T01:49:56.844Z,102562.40
2019-02-27T01:52:33.976Z,102552.94
2019-02-27T01:55:04.861Z,102548.48
2019-02-27T01:57:36.816Z,102548.91
2019-02-27T02:00:09.700Z,102551.34
2019-02-27T02:02:40.462Z,102546.71
2019-02-27T02:05:08.667Z,102542.70
2019-02-27T02:07:40.161Z,102541.61
2019-02-27T02:10:11.230Z,102536.31
2019-02-27T02:12:43.180Z,102534.38
2019-02-27T02:15:14.894Z,102529.20
2019-02-27T02:18:01.360Z,102525.68
2019-02-27T02:21:05.235Z,102517.83
2019-02-27T02:23:59.881Z,102517.68
2019-02-27T02:26:55.909Z,102515.08
2019-02-27T02:30:01.147Z,102509.86
2019-02-27T02:32:38.640Z,102509.20
2019-02-27T02:35:19.040Z,102504.87
2019-02-27T02:38:03.031Z,102497.59
2019-02-27T02:40:58.980Z,102501.84
2019-02-27T02:43:45.253Z,102495.40
2019-02-27T02:46:22.820Z,102497.22
2019-02-27T02:49:24.391Z,102490.05
2019-02-27T02:52:15.167Z,102481.75
2019-02-27T02:55:13.527Z,102473.33
2019-02-27T02:58:11.404Z,102474.09
2019-02-27T03:01:01.304Z,102476.38
2019-02-27T03:03:38.848Z,102477.42
2019-02-27T03:06:27.272Z,102479.12
2019-02-27T03:09:30.636Z,102476.53
2019-02-27T03:12:19.298Z,102475.59
2019-02-27T03:15:19.402Z,102474.86
2019-02-27T03:18:14.029Z,102474.29
2019-02-27T03:20:52.470Z,102472.46
2019-02-27T03:23:58.006Z,102474.67
2019-02-27T03:27:03.594Z,102476.24
2019-02-27T03:29:51.980Z,102467.14
2019-02-27T03:32:54.140Z,102469.84
2019-02-27T03:35:37.775Z,102474.95
2019-02-27T03:38:24.820Z,102473.65
2019-02-27T03:41:02.217Z,102478.70
2019-02-27T03:43:54.805Z,102476.41
2019-02-27T03:46:42.004Z,102464.73
2019-02-27T03:49:39.758Z,102460.64
2019-02-27T03:52:36.551Z,102468.14
2019-02-27T03:55:15.948Z,102467.72
2019-02-27T03:57:56.883Z,102466.12
2019-02-27T04:00:31.341Z,102472.59
2019-02-27T04:03:17.083Z,102471.53
2019-02-27T04:05:50.803Z,102465.52
2019-02-27T04:08:28.221Z,102465.51
2019-02-27T04:10:57.444Z,102467.18
2019-02-27T04:13:29.409Z,102468.72
2019-02-27T04:15:59.542Z,102466.06
2019-02-27T04:18:32.829Z,102461.56
2019-02-27T04:21:01.418Z,102456.39
2019-02-27T04:23:30.311Z,102459.58
2019-02-27T04:25:58.876Z,102452.31
2019-02-27T04:28:29.958Z,102453.71
2019-02-27T04:31:02.143Z,102453.02
2019-02-27T04:33:30.735Z,102451.14
2019-02-27T04:35:59.302Z,102453.56
2019-02-27T04:38:30.996Z,102453.98
2019-02-27T04:40:59.907Z,102445.62
2019-02-27T04:43:32.180Z,102441.16
2019-02-27T04:46:01.360Z,102440.27
2019-02-27T04:48:32.910Z,102443.25
2019-02-27T04:51:01.496Z,102438.73
2019-02-27T04:53:32.781Z,102432.97
2019-02-27T04:56:01.348Z,102423.78
2019-02-27T04:58:32.880Z,102428.45
2019-02-27T05:01:04.408Z,102426.60
2019-02-27T05:03:32.976Z,102420.07
2019-02-27T05:06:01.560Z,102420.94
2019-02-27T05:08:30.169Z,102421.09
2019-02-27T05:10:58.750Z,102416.94
2019-02-27T05:13:30.057Z,102419.17
2019-02-27T05:16:01.506Z,102422.72
2019-02-27T05:18:33.093Z,102416.14
2019-02-27T05:21:04.359Z,102415.38
2019-02-27T05:23:35.801Z,102416.53
2019-02-27T05:26:07.148Z,102412.84
2019-02-27T05:28:36.126Z,102410.55
2019-02-27T05:31:07.887Z,102415.38
2019-02-27T05:33:39.882Z,102403.45
2019-02-27T05:36:08.616Z,102405.16
2019-02-27T05:38:41.010Z,102406.84
2019-02-27T05:41:10.350Z,102399.13
2019-02-27T05:43:38.950Z,102407.27
2019-02-27T05:46:07.522Z,102409.31
2019-02-27T05:48:39.434Z,102409.76
2019-02-27T05:51:10.899Z,102404.54
2019-02-27T05:53:39.486Z,102409.63
2019-02-27T05:56:15.565Z,102410.05
2019-02-27T05:58:44.572Z,102407.45
2019-02-27T06:01:13.155Z,102414.94
2019-02-27T06:03:44.530Z,102418.30
2019-02-27T06:06:15.971Z,102414.50
2019-02-27T06:08:44.580Z,102416.52
2019-02-27T06:11:15.911Z,102411.81
2019-02-27T06:13:48.236Z,102402.14
2019-02-27T06:16:17.153Z,102402.78
2019-02-27T06:18:48.583Z,102396.92
2019-02-27T06:21:17.152Z,102405.37
2019-02-27T06:23:48.769Z,102405.91
2019-02-27T06:26:17.338Z,102398.23
2019-02-27T06:28:45.951Z,102397.38
2019-02-27T06:31:17.690Z,102398.39
2019-02-27T06:33:49.235Z,102390.52
2019-02-27T06:36:20.727Z,102395.67
2019-02-27T06:38:52.665Z,102387.48
2019-02-27T06:41:24.022Z,102390.81
2019-02-27T06:43:55.906Z,102379.54
2019-02-27T06:46:28.704Z,102376.73
2019-02-27T06:49:00.196Z,102374.33
2019-02-27T06:51:28.776Z,102381.59
2019-02-27T06:54:00.306Z,102382.16
2019-02-27T06:56:32.120Z,102380.91
2019-02-27T06:59:00.748Z,102378.70
2019-02-27T07:01:29.312Z,102381.57
2019-02-27T07:04:02.243Z,102377.16
2019-02-27T07:06:31.192Z,102374.60
2019-02-27T07:08:59.778Z,102372.67
2019-02-27T07:11:28.356Z,102379.08
2019-02-27T07:13:56.952Z,102369.50
2019-02-27T07:16:26.014Z,102370.37
2019-02-27T07:19:13.160Z,102364.92
2019-02-27T07:21:42.412Z,102366.30
2019-02-27T07:24:11.005Z,102366.13
2019-02-27T07:26:42.250Z,102361.91
2019-02-27T07:29:10.844Z,102367.94
2019-02-27T07:31:42.530Z,102365.68
2019-02-27T07:34:14.896Z,102364.26
2019-02-27T07:36:43.571Z,102364.92
2019-02-27T07:39:12.124Z,102361.73
2019-02-27T07:41:43.678Z,102363.30
2019-02-27T07:44:12.229Z,102363.58
2019-02-27T07:46:43.539Z,102364.64
2019-02-27T07:49:15.073Z,102358.05
2019-02-27T07:51:43.660Z,102354.80
2019-02-27T07:54:12.580Z,102351.95
2019-02-27T07:56:44.156Z,102353.88
2019-02-27T07:59:15.377Z,102350.69
2019-02-27T08:01:44.250Z,102342.36
2019-02-27T08:04:19.041Z,102349.64
2019-02-27T08:06:46.544Z,102350.28
2019-02-27T08:09:18.018Z,102346.14
2019-02-27T08:11:49.871Z,102339.84
2019-02-27T08:14:21.398Z,102347.77
2019-02-27T08:16:57.177Z,102339.38
2019-02-27T08:19:26.309Z,102333.48
2019-02-27T08:22:01.254Z,102331.95
2019-02-27T08:24:33.784Z,102333.08
2019-02-27T08:27:02.889Z,102328.09
2019-02-27T08:29:31.830Z,102325.31
2019-02-27T08:32:05.348Z,102325.02
2019-02-27T08:34:33.511Z,102326.36
2019-02-27T08:37:04.957Z,102324.36
2019-02-27T08:39:36.506Z,102323.61
2019-02-27T08:42:07.781Z,102324.15
2019-02-27T08:44:39.307Z,102322.13
2019-02-27T08:47:11.015Z,102319.20
2019-02-27T08:49:39.575Z,102318.47
2019-02-27T08:52:08.564Z,102318.47
2019-02-27T08:54:40.041Z,102315.15
2019-02-27T08:57:11.321Z,102315.15
2019-02-27T08:59:42.762Z,102309.17
2019-02-27T09:02:11.412Z,102303.20
2019-02-27T09:04:45.530Z,102303.20
2019-02-27T09:07:16.377Z,102295.08
2019-02-27T09:09:51.192Z,102293.80
2019-02-27T09:12:18.201Z,102288.19
2019-02-27T09:14:50.448Z,102288.19
2019-02-27T09:17:22.024Z,102282.13
2019-02-27T09:19:53.365Z,102284.27
2019-02-27T09:22:25.019Z,102281.69
2019-02-27T09:24:57.244Z,102282.05
2019-02-27T09:27:25.871Z,102276.81
2019-02-27T09:29:55.345Z,102261.23
2019-02-27T09:32:27.137Z,102256.80
2019-02-27T09:34:59.609Z,102258.05
2019-02-27T09:37:31.919Z,102250.58
2019-02-27T09:40:05.867Z,102247.03
2019-02-27T09:42:34.691Z,102241.36
2019-02-27T09:45:03.318Z,102241.23
2019-02-27T09:47:31.885Z,102233.34
2019-02-27T09:50:03.567Z,102232.38
2019-02-27T09:52:35.044Z,102230.45
2019-02-27T09:55:07.105Z,102230.28
2019-02-27T09:57:38.609Z,102220.95
2019-02-27T10:00:29.882Z,102214.75
2019-02-27T10:03:02.029Z,102214.45
2019-02-27T10:05:31.028Z,102205.64
2019-02-27T10:07:59.895Z,102203.37
2019-02-27T10:10:31.250Z,102199.27
2019-02-27T10:12:59.971Z,102197.72
2019-02-27T10:15:28.647Z,102192.87
2019-02-27T10:17:59.150Z,102190.97
2019-02-27T10:20:30.555Z,102179.09
2019-02-27T10:22:59.320Z,102185.06
2019-02-27T10:25:30.945Z,102179.91
2019-02-27T10:28:03.436Z,102185.38
2019-02-27T10:30:30.125Z,102179.59
2019-02-27T10:32:58.737Z,102175.19
2019-02-27T10:35:30.603Z,102173.24
2019-02-27T10:37:59.179Z,102168.58
2019-02-27T10:40:31.004Z,102163.78
2019-02-27T10:42:59.566Z,102160.82
2019-02-27T10:45:34.238Z,102150.78
2019-02-27T10:48:05.691Z,102152.80
2019-02-27T10:50:37.363Z,102146.64
2019-02-27T10:53:08.867Z,102144.09
2019-02-27T10:55:41.339Z,102136.31
2019-02-27T10:58:12.716Z,102146.53
2019-02-27T11:00:41.595Z,102138.02
2019-02-27T11:03:13.112Z,102137.11
2019-02-27T11:05:41.759Z,102138.30
2019-02-27T11:08:13.402Z,102135.09
2019-02-27T11:10:42.046Z,102128.74
2019-02-27T11:13:13.644Z,102118.03
2019-02-27T11:15:44.556Z,102116.53
2019-02-27T11:18:12.521Z,102115.56
2019-02-27T11:20:44.067Z,102112.67
2019-02-27T11:23:12.644Z,102110.06
2019-02-27T11:25:44.034Z,102106.14
2019-02-27T11:28:15.546Z,102093.31
2019-02-27T11:30:44.427Z,102087.97
2019-02-27T11:33:24.717Z,102092.59
2019-02-27T11:35:43.478Z,102086.52
2019-02-27T11:38:12.395Z,102083.11
2019-02-27T11:40:43.895Z,102079.00
2019-02-27T11:43:12.522Z,102075.06
2019-02-27T11:45:41.182Z,102074.64
2019-02-27T11:48:10.089Z,102069.28
2019-02-27T11:50:41.673Z,102062.39
2019-02-27T11:53:13.308Z,102060.94
2019-02-27T11:55:47.068Z,102057.33
2019-02-27T11:58:18.397Z,102050.39
2019-02-27T12:00:49.803Z,102046.77
2019-02-27T12:03:18.740Z,102038.20
2019-02-27T12:05:47.756Z,102033.61
2019-02-27T12:08:19.087Z,102034.50
2019-02-27T12:10:50.610Z,102025.92
2019-02-27T12:13:19.525Z,102023.47
2019-02-27T12:15:48.121Z,102018.35
2019-02-27T12:18:19.440Z,102009.47
2019-02-27T12:20:48.088Z,102005.83
2019-02-27T12:23:16.647Z,102000.23
2019-02-27T12:25:47.959Z,101994.45
2019-02-27T12:28:19.642Z,101990.13
2019-02-27T12:30:48.978Z,101984.39
2019-02-27T12:33:20.619Z,101980.28
2019-02-27T12:35:49.373Z,101981.45
2019-02-27T12:38:21.111Z,101978.02
2019-02-27T12:40:52.622Z,101970.72
2019-02-27T12:43:24.438Z,101967.89
2019-02-27T12:45:53.015Z,101962.47
2019-02-27T12:48:24.550Z,101957.69
2019-02-27T12:50:56.394Z,101951.83
2019-02-27T12:53:26.950Z,101948.95
2019-02-27T12:56:01.003Z,101939.25
2019-02-27T12:58:32.308Z,101943.73
2019-02-27T13:01:04.824Z,101941.45
2019-02-27T13:03:33.371Z,101934.81
2019-02-27T13:06:05.619Z,101925.77
2019-02-27T13:08:37.316Z,101922.76
2019-02-27T13:11:09.021Z,101917.39
2019-02-27T13:13:40.415Z,101921.72
2019-02-27T13:16:14.307Z,101916.47
2019-02-27T13:18:42.173Z,101919.24
2019-02-27T13:21:10.786Z,101918.51
2019-02-27T13:23:42.415Z,101916.94
2019-02-27T13:26:13.785Z,101914.77
2019-02-27T13:28:42.342Z,101907.77
2019-02-27T13:31:13.664Z,101902.72
2019-02-27T13:33:45.116Z,101894.97
2019-02-27T13:36:16.580Z,101900.21
2019-02-27T13:38:49.564Z,101894.52
2019-02-27T13:41:21.501Z,101890.31
2019-02-27T13:43:50.386Z,101889.66
2019-02-27T13:46:22.749Z,101885.78
2019-02-27T13:48:54.397Z,101871.23
2019-02-27T13:51:27.622Z,101873.97
2019-02-27T13:54:00.538Z,101862.41
2019-02-27T13:56:34.102Z,101857.70
2019-02-27T13:59:02.673Z,101861.69
2019-02-27T14:01:34.251Z,101852.84
2019-02-27T14:04:05.612Z,101847.00
2019-02-27T14:06:34.171Z,101837.02
2019-02-27T14:09:08.672Z,101832.93
2019-02-27T14:11:40.710Z,101823.48
2019-02-27T14:14:09.413Z,101826.19
2019-02-27T14:16:37.960Z,101824.38
2019-02-27T14:19:06.627Z,101818.54
2019-02-27T14:21:36.153Z,101796.84
2019-02-27T14:24:04.994Z,101797.95
2019-02-27T14:26:38.277Z,101791.31
2019-02-27T14:29:07.702Z,101785.80
2019-02-27T14:31:36.901Z,101783.22
2019-02-27T14:34:08.193Z,101776.28
2019-02-27T14:36:39.392Z,101777.25
2019-02-27T14:39:08.720Z,101763.61
2019-02-27T14:41:40.088Z,101764.41
2019-02-27T14:44:08.674Z,101762.22
2019-02-27T14:46:37.244Z,101759.37
2019-02-27T14:49:08.543Z,101758.79
2019-02-27T14:51:41.174Z,101758.48
2019-02-27T14:54:10.722Z,101754.13
2019-02-27T14:56:42.709Z,101751.72
2019-02-27T14:59:14.063Z,101739.99
2019-02-27T15:01:48.634Z,101735.42
2019-02-27T15:04:18.583Z,101739.06
2019-02-27T15:06:51.263Z,101741.13
2019-02-27T15:09:23.123Z,101735.34
2019-02-27T15:11:54.406Z,101722.68
2019-02-27T15:14:31.064Z,101716.46
2019-02-27T15:17:01.340Z,101722.17
2019-02-27T15:19:30.661Z,101713.28
2019-02-27T15:22:02.372Z,101715.10
2019-02-27T15:24:34.779Z,101709.52
2019-02-27T15:27:06.926Z,101703.80
2019-02-27T15:29:39.580Z,101695.42
2019-02-27T15:32:08.987Z,101683.66
2019-02-27T15:34:37.882Z,101676.33
2019-02-27T15:37:09.141Z,101678.19
2019-02-27T15:39:41.222Z,101676.20
2019-02-27T15:42:12.468Z,101664.41
2019-02-27T15:44:43.778Z,101657.17
2019-02-27T15:47:15.602Z,101650.66
2019-02-27T15:49:46.112Z,101645.47
2019-02-27T15:52:17.459Z,101642.38
2019-02-27T15:54:48.913Z,101641.97
2019-02-27T15:57:20.192Z,101639.36
2019-02-27T15:59:51.492Z,101639.94
2019-02-27T16:02:23.201Z,101640.78
2019-02-27T16:04:55.153Z,101642.97
2019-02-27T16:07:22.090Z,101640.88
2019-02-27T16:09:53.863Z,101638.65
2019-02-27T16:12:25.947Z,101631.35
2019-02-27T16:14:56.911Z,101632.95
2019-02-27T16:17:30.956Z,101631.92
2019-02-27T16:19:58.656Z,101621.81
2019-02-27T16:22:31.510Z,101624.16
2019-02-27T16:25:00.237Z,101613.13
2019-02-27T16:27:29.163Z,101606.81
2019-02-27T16:29:59.266Z,101597.91
2019-02-27T16:32:29.375Z,101594.52
2019-02-27T16:34:59.233Z,101594.55
2019-02-27T16:37:31.489Z,101599.77
2019-02-27T16:40:00.151Z,101590.16
2019-02-27T16:42:28.884Z,101591.16
2019-02-27T16:45:00.453Z,101590.77
2019-02-27T16:47:29.021Z,101592.02
2019-02-27T16:49:57.614Z,101587.62
2019-02-27T16:52:29.122Z,101587.83
2019-02-27T16:55:01.465Z,101585.14
2019-02-27T16:57:31.164Z,101584.98
2019-02-27T17:00:02.516Z,101575.06
2019-02-27T17:02:35.497Z,101569.97
2019-02-27T17:05:08.814Z,101569.34
2019-02-27T17:07:36.128Z,101569.94
2019-02-27T17:10:10.845Z,101567.69
2019-02-27T17:12:42.237Z,101561.98
2019-02-27T17:15:10.900Z,101557.88
2019-02-27T17:17:39.534Z,101556.32
2019-02-27T17:20:12.763Z,101564.80
2019-02-27T17:22:44.330Z,101563.70
2019-02-27T17:25:14.815Z,101559.20
2019-02-27T17:27:49.962Z,101551.84
2019-02-27T17:30:18.974Z,101552.41
2019-02-27T17:32:47.777Z,101552.55
2019-02-27T17:35:16.365Z,101556.23
2019-02-27T17:37:47.669Z,101551.02
2019-02-27T17:40:19.582Z,101547.77
2019-02-27T17:42:53.135Z,101547.04
2019-02-27T17:45:26.980Z,101546.78
2019-02-27T17:47:56.006Z,101543.41
2019-02-27T17:50:24.751Z,101537.06
2019-02-27T17:52:53.440Z,101538.52
2019-02-27T17:55:22.025Z,101531.33
2019-02-27T17:57:57.707Z,101529.33
2019-02-27T18:00:29.745Z,101521.78
2019-02-27T18:02:59.077Z,101521.59
2019-02-27T18:05:28.373Z,101515.42
2019-02-27T18:07:57.041Z,101510.47
2019-02-27T18:10:28.638Z,101504.57
2019-02-27T18:13:01.403Z,101502.02
2019-02-27T18:15:30.892Z,101497.41
2019-02-27T18:18:02.492Z,101490.48
2019-02-27T18:20:32.144Z,101487.39
2019-02-27T18:23:00.837Z,101486.41
2019-02-27T18:25:29.424Z,101481.13
2019-02-27T18:28:00.787Z,101476.08
2019-02-27T18:30:29.828Z,101476.03
2019-02-27T18:33:01.003Z,101471.20
2019-02-27T18:35:31.975Z,101467.16
2019-02-27T18:38:00.541Z,101461.14
2019-02-27T18:40:29.094Z,101462.53
2019-02-27T18:43:00.735Z,101451.89
2019-02-27T18:45:29.852Z,101447.64
2019-02-27T18:48:01.135Z,101446.52
2019-02-27T18:50:29.759Z,101444.70
2019-02-27T18:53:01.316Z,101444.65
2019-02-27T18:55:31.387Z,101436.46
2019-02-27T18:58:00.283Z,101430.73
2019-02-27T19:00:33.436Z,101422.91
2019-02-27T19:03:06.277Z,101425.76
2019-02-27T19:05:38.156Z,101421.47
2019-02-27T19:08:07.298Z,101412.73
2019-02-27T19:10:41.401Z,101401.41
2019-02-27T19:13:11.003Z,101396.31
2019-02-27T19:15:45.317Z,101391.92
2019-02-27T19:18:11.228Z,101393.37
2019-02-27T19:20:45.194Z,101380.75
2019-02-27T19:23:17.332Z,101376.02
2019-02-27T19:25:45.619Z,101379.91
2019-02-27T19:28:14.814Z,101376.07
2019-02-27T19:30:44.001Z,101372.32
2019-02-27T19:33:13.934Z,101363.25
2019-02-27T19:35:43.475Z,101362.05
2019-02-27T19:38:13.638Z,101356.37
2019-02-27T19:40:42.911Z,101351.92
2019-02-27T19:43:14.539Z,101348.48
2019-02-27T19:45:43.767Z,101342.55
2019-02-27T19:48:15.758Z,101334.71
2019-02-27T19:50:47.339Z,101325.69
2019-02-27T19:53:19.346Z,101311.67
2019-02-27T19:55:51.572Z,101308.89
2019-02-27T19:58:23.244Z,101303.09
2019-02-27T20:00:54.592Z,101299.26
2019-02-27T20:03:29.321Z,101294.83
2019-02-27T20:06:01.439Z,101287.90
2019-02-27T20:08:30.090Z,101288.25
2019-02-27T20:10:58.741Z,101281.70
2019-02-27T20:13:29.999Z,101269.95
2019-02-27T20:16:01.365Z,101273.93
2019-02-27T20:18:32.893Z,101266.55
2019-02-27T20:21:01.495Z,101278.03
2019-02-27T20:23:30.186Z,101266.81
2019-02-27T20:25:58.836Z,101261.81
2019-02-27T20:28:31.822Z,101253.30
2019-02-27T20:35:20.680Z,101251.30
2019-02-27T20:37:06.479Z,101247.86
2019-02-27T20:39:35.957Z,101248.17
2019-02-27T20:42:05.784Z,101240.84
2019-02-27T20:44:37.369Z,101232.62
2019-02-27T20:47:04.961Z,101233.50
2019-02-27T20:49:33.621Z,101219.02
2019-02-27T20:52:02.259Z,101208.75
2019-02-27T20:54:33.591Z,101202.45
2019-02-27T20:57:02.158Z,101200.77
2019-02-27T20:59:30.818Z,101192.35
2019-02-27T21:01:59.553Z,101195.89
2019-02-27T21:04:32.330Z,101187.97
2019-02-27T21:07:01.297Z,101187.16
2019-02-27T21:09:30.668Z,101180.94
2019-02-27T21:12:03.512Z,101176.27
2019-02-27T21:14:29.609Z,101178.50
2019-02-27T21:17:01.077Z,101169.13
2019-02-27T21:19:33.871Z,101165.73
2019-02-27T21:22:03.555Z,101168.02
2019-02-27T21:24:32.124Z,101160.39
2019-02-27T21:27:00.847Z,101151.03
2019-02-27T21:29:29.547Z,101146.85
2019-02-27T21:32:01.502Z,101142.44
2019-02-27T21:34:29.599Z,101142.13
2019-02-27T21:37:01.311Z,101140.54
2019-02-27T21:39:29.916Z,101126.89
2019-02-27T21:41:58.481Z,101135.61
2019-02-27T21:44:29.210Z,101129.28
2019-02-27T21:46:58.371Z,101127.58
2019-02-27T21:49:31.832Z,101124.05
2019-02-27T21:51:58.868Z,101120.47
2019-02-27T21:54:30.377Z,101113.91
2019-02-27T21:56:59.439Z,101104.88
2019-02-27T21:59:30.195Z,101098.27
2019-02-27T22:02:03.844Z,101092.52
2019-02-27T22:05:42.810Z,101089.63
2019-02-27T22:07:17.851Z,101084.91
2019-02-27T22:12:27.233Z,101074.64
2019-02-27T22:15:00.291Z,101071.86
2019-02-27T22:17:29.188Z,101060.04
2019-02-27T22:20:19.915Z,101057.39
2019-02-27T22:26:58.777Z,101052.84
2019-02-27T22:34:33.026Z,101042.98
2019-02-27T22:36:47.640Z,101035.89
2019-02-27T22:41:10.095Z,101027.16
2019-02-27T22:44:46.025Z,101027.66
2019-02-27T22:47:21.474Z,101024.28
2019-02-27T22:51:38.532Z,101024.14
2019-02-27T22:52:47.723Z,101015.30
2019-02-27T22:55:43.136Z,101015.94
2019-02-27T22:58:28.299Z,101007.32
2019-02-27T23:01:14.909Z,101010.80
2019-02-27T23:03:55.016Z,100998.59
2019-02-27T23:06:32.953Z,101002.16
2019-02-27T23:09:01.540Z,100996.71
2019-02-27T23:11:39.715Z,100990.75
2019-02-27T23:14:11.489Z,100983.75
2019-02-27T23:16:43.394Z,100980.63
2019-02-27T23:19:14.661Z,100973.48
2019-02-27T23:21:46.035Z,100969.81
2019-02-27T23:24:17.685Z,100963.07
2019-02-27T23:26:46.341Z,100957.94
2019-02-27T23:29:14.893Z,100955.35
2019-02-27T23:31:43.546Z,100950.10
2019-02-27T23:34:15.061Z,100942.46
2019-02-27T23:36:46.737Z,100941.27
2019-02-27T23:39:18.175Z,100934.75
2019-02-27T23:41:49.496Z,100930.14
2019-02-27T23:44:20.738Z,100936.73
2019-02-27T23:46:57.239Z,100929.42
2019-02-27T23:49:26.335Z,100929.58
2019-02-27T23:51:57.763Z,100925.11
2019-02-27T23:54:28.429Z,100927.04
2019-02-27T23:56:57.014Z,100917.28
2019-02-27T23:59:28.513Z,100911.27
